»·PEaware :: COBRA21 KFMN-KABQ

COBRA21 :: KFMN-KABQ

FLIGHT INFORMATION

Flight Status: Arrived
Operator: Unknown
More flights by this operator :: More flights under this callsign
Pilot: Stephen H. (22241)
Aircraft: BEECH AIRCRAFT T-6A TEXAN
(TEX2)
More flights by this aircraft type
Origin: KFMN Four Corners Regl
United States
Destination: KABQ Albuquerque Intl Sunport
United States
More flights between these airports :: More routes between these airports
Route: +CHOCO1 RSK V187 TANER CURLY3
File this flight plan on PilotEdge
Remarks: RV to Final ILS RWY 3
Altitude:
(Current/Filed)
15,000ft
Speed:
(Current/Filed)
270kts
Departed: 12-Jun-20 12:32 PM
Arrived: 12-Jun-20 01:07 PM
Distance/Time
Traveled:
129nm/0:35
Distance/Time
To Go:
Arrived

Flight Plot

Page will automatically refresh every two minutes.

Flight plan parsing failed; only flown route is shown


Map Options




Map Legend


Flown Route
Filed Route
Departure Airport
Arrival Airport
Navaid (VOR, NDB)
Fix

Horizontal Profiles

Position Reports

Time Latitude Longitude Heading Altitude Ground
Speed
12-Jun-20 12:18 36.739979 -108.225924 88 5507ft 0kts
12-Jun-20 12:19 36.739979 -108.225924 88 5507ft 0kts
12-Jun-20 12:20 36.739979 -108.225924 88 5507ft 0kts
12-Jun-20 12:22 36.739979 -108.225924 88 5507ft 0kts
12-Jun-20 12:23 36.739979 -108.225924 88 5507ft 0kts
12-Jun-20 12:24 36.739979 -108.225924 88 5507ft 0kts
12-Jun-20 12:25 36.739979 -108.225924 88 5507ft 0kts
12-Jun-20 12:26 36.740248 -108.226135 288 5507ft 3kts
12-Jun-20 12:27 36.740660 -108.225400 88 5507ft 4kts
12-Jun-20 12:28 36.740714 -108.222923 88 5507ft 10kts
12-Jun-20 12:29 36.740801 -108.219234 88 5507ft 6kts
12-Jun-20 12:30 36.740823 -108.218473 87 5507ft 0kts
12-Jun-20 12:31 36.741603 -108.217963 268 5507ft 23kts
12-Jun-20 12:32 36.721794 -108.243899 143 7523ft 187kts
12-Jun-20 12:33 36.683889 -108.192417 118 10751ft 203kts
12-Jun-20 12:34 36.660921 -108.128211 118 14091ft 208kts
12-Jun-20 12:35 36.626008 -108.055301 122 15005ft 273kts
12-Jun-20 12:36 36.584933 -107.975233 130 14716ft 264kts
12-Jun-20 12:37 36.528237 -107.923713 146 14591ft 245kts
12-Jun-20 12:38 36.470928 -107.881287 152 14753ft 238kts
12-Jun-20 12:39 36.415146 -107.836715 141 14723ft 239kts
12-Jun-20 12:40 36.361937 -107.787002 148 14621ft 242kts
12-Jun-20 12:40 36.314359 -107.751271 151 14608ft 241kts
12-Jun-20 12:42 36.246398 -107.705172 147 14701ft 237kts
12-Jun-20 12:42 36.201881 -107.663017 142 14426ft 248kts
12-Jun-20 12:43 36.146316 -107.616792 144 14478ft 244kts
12-Jun-20 12:45 36.082270 -107.561495 142 14537ft 239kts
12-Jun-20 12:45 36.037249 -107.522206 149 14621ft 237kts
12-Jun-20 12:46 35.979796 -107.481180 149 14582ft 240kts
12-Jun-20 12:48 35.912140 -107.433855 151 14634ft 238kts
12-Jun-20 12:48 35.862625 -107.401865 151 14551ft 241kts
12-Jun-20 12:49 35.804906 -107.360589 147 14545ft 240kts
12-Jun-20 12:50 35.746322 -107.315714 148 14666ft 272kts
12-Jun-20 12:51 35.677193 -107.264837 149 14594ft 296kts
12-Jun-20 12:52 35.606514 -107.211629 149 14505ft 300kts
12-Jun-20 12:53 35.535386 -107.159643 150 14537ft 300kts
12-Jun-20 12:54 35.464103 -107.106904 146 14533ft 300kts
12-Jun-20 12:55 35.391856 -107.057289 155 14567ft 299kts
12-Jun-20 12:56 35.309557 -107.035862 168 12129ft 303kts
12-Jun-20 12:57 35.220080 -107.010383 168 9572ft 330kts
12-Jun-20 12:58 35.131771 -106.981244 157 7300ft 308kts
12-Jun-20 12:59 35.076760 -106.936662 113 7110ft 195kts
12-Jun-20 13:00 35.060588 -106.878463 109 7097ft 175kts
12-Jun-20 13:01 35.047272 -106.816991 99 7065ft 164kts
12-Jun-20 13:02 35.045228 -106.769501 89 6878ft 130kts
12-Jun-20 13:03 35.044956 -106.724690 89 6575ft 130kts
12-Jun-20 13:04 35.045111 -106.680213 87 5890ft 132kts
12-Jun-20 13:05 35.044390 -106.637221 89 5676ft 119kts
12-Jun-20 13:06 35.044247 -106.602134 88 5319ft 23kts
12-Jun-20 13:07 35.044686 -106.597567 65 5320ft 6kts
12-Jun-20 13:08 35.045359 -106.595912 60 5322ft 5kts
12-Jun-20 13:09 35.045844 -106.594259 88 5324ft 0kts

Navigation Log

Ident Type
Flight plan parsing failed, navigation log unavailable